sensor_id;sensor_type;location;lat;lon;timestamp;P1;durP1;ratioP1;P2;durP2;ratioP2
70148;SDS011;57514;52.164;5.282;2023-02-22T00:01:53;39.72;;;13.75;;
70148;SDS011;57514;52.164;5.282;2023-02-22T00:04:36;37.63;;;15.52;;
70148;SDS011;57514;52.164;5.282;2023-02-22T00:07:05;19.45;;;8.43;;
70148;SDS011;57514;52.164;5.282;2023-02-22T00:09:32;41.67;;;16.90;;
70148;SDS011;57514;52.164;5.282;2023-02-22T00:11:59;37.50;;;15.70;;
70148;SDS011;57514;52.164;5.282;2023-02-22T00:14:26;34.85;;;14.35;;
70148;SDS011;57514;52.164;5.282;2023-02-22T00:16:53;36.30;;;14.55;;
70148;SDS011;57514;52.164;5.282;2023-02-22T00:19:25;38.88;;;14.43;;
70148;SDS011;57514;52.164;5.282;2023-02-22T00:21:53;37.38;;;15.48;;
70148;SDS011;57514;52.164;5.282;2023-02-22T00:24:20;41.15;;;15.02;;
70148;SDS011;57514;52.164;5.282;2023-02-22T00:26:51;32.08;;;12.93;;
70148;SDS011;57514;52.164;5.282;2023-02-22T00:29:21;33.03;;;13.00;;
70148;SDS011;57514;52.164;5.282;2023-02-22T00:31:48;39.35;;;16.88;;
70148;SDS011;57514;52.164;5.282;2023-02-22T00:34:16;39.65;;;15.52;;
70148;SDS011;57514;52.164;5.282;2023-02-22T00:36:44;35.17;;;14.75;;
70148;SDS011;57514;52.164;5.282;2023-02-22T00:39:11;39.15;;;15.75;;
70148;SDS011;57514;52.164;5.282;2023-02-22T00:41:38;40.67;;;15.57;;
70148;SDS011;57514;52.164;5.282;2023-02-22T00:44:06;41.03;;;16.60;;
70148;SDS011;57514;52.164;5.282;2023-02-22T00:46:33;40.42;;;15.68;;
70148;SDS011;57514;52.164;5.282;2023-02-22T00:49:01;37.67;;;14.70;;
70148;SDS011;57514;52.164;5.282;2023-02-22T00:51:28;39.63;;;13.02;;
70148;SDS011;57514;52.164;5.282;2023-02-22T00:53:58;41.33;;;15.85;;
70148;SDS011;57514;52.164;5.282;2023-02-22T00:56:25;22.67;;;9.93;;
70148;SDS011;57514;52.164;5.282;2023-02-22T00:58:54;40.85;;;15.10;;
70148;SDS011;57514;52.164;5.282;2023-02-22T01:01:21;38.70;;;15.07;;
70148;SDS011;57514;52.164;5.282;2023-02-22T01:03:49;37.63;;;14.20;;
70148;SDS011;57514;52.164;5.282;2023-02-22T01:06:16;35.90;;;13.57;;
70148;SDS011;57514;52.164;5.282;2023-02-22T01:08:44;41.20;;;16.30;;
70148;SDS011;57514;52.164;5.282;2023-02-22T01:11:12;39.53;;;15.23;;
70148;SDS011;57514;52.164;5.282;2023-02-22T01:13:41;36.13;;;14.18;;
70148;SDS011;57514;52.164;5.282;2023-02-22T01:16:10;36.15;;;14.93;;
70148;SDS011;57514;52.164;5.282;2023-02-22T01:18:38;40.38;;;15.32;;
70148;SDS011;57514;52.164;5.282;2023-02-22T01:21:05;39.35;;;15.05;;
70148;SDS011;57514;52.164;5.282;2023-02-22T01:23:33;40.45;;;17.40;;
70148;SDS011;57514;52.164;5.282;2023-02-22T01:26:02;33.30;;;13.75;;
70148;SDS011;57514;52.164;5.282;2023-02-22T01:28:31;38.75;;;14.70;;
70148;SDS011;57514;52.164;5.282;2023-02-22T01:31:00;37.58;;;13.13;;
70148;SDS011;57514;52.164;5.282;2023-02-22T01:33:28;34.85;;;13.02;;
70148;SDS011;57514;52.164;5.282;2023-02-22T01:35:56;36.35;;;14.82;;
70148;SDS011;57514;52.164;5.282;2023-02-22T01:38:26;31.52;;;12.73;;
70148;SDS011;57514;52.164;5.282;2023-02-22T01:40:53;38.80;;;13.07;;
70148;SDS011;57514;52.164;5.282;2023-02-22T01:43:22;31.52;;;11.63;;
70148;SDS011;57514;52.164;5.282;2023-02-22T01:45:52;32.20;;;14.38;;
70148;SDS011;57514;52.164;5.282;2023-02-22T01:53:25;37.50;;;15.10;;
70148;SDS011;57514;52.164;5.282;2023-02-22T01:55:53;18.27;;;7.40;;
70148;SDS011;57514;52.164;5.282;2023-02-22T01:58:21;36.65;;;14.45;;
70148;SDS011;57514;52.164;5.282;2023-02-22T02:00:49;23.33;;;8.43;;
70148;SDS011;57514;52.164;5.282;2023-02-22T02:03:18;28.33;;;11.32;;
70148;SDS011;57514;52.164;5.282;2023-02-22T02:05:47;33.78;;;13.02;;
70148;SDS011;57514;52.164;5.282;2023-02-22T02:08:32;34.65;;;12.98;;
70148;SDS011;57514;52.164;5.282;2023-02-22T02:11:04;31.60;;;13.07;;
70148;SDS011;57514;52.164;5.282;2023-02-22T02:13:34;37.17;;;14.00;;
70148;SDS011;57514;52.164;5.282;2023-02-22T02:16:02;31.17;;;13.68;;
70148;SDS011;57514;52.164;5.282;2023-02-22T02:18:29;31.40;;;12.75;;
70148;SDS011;57514;52.164;5.282;2023-02-22T02:23:46;32.78;;;13.20;;
70148;SDS011;57514;52.164;5.282;2023-02-22T02:34:32;29.67;;;13.05;;
70148;SDS011;57514;52.164;5.282;2023-02-22T02:37:08;36.55;;;13.88;;
70148;SDS011;57514;52.164;5.282;2023-02-22T02:39:43;33.80;;;13.63;;
70148;SDS011;57514;52.164;5.282;2023-02-22T02:42:15;29.35;;;12.30;;
70148;SDS011;57514;52.164;5.282;2023-02-22T02:47:16;31.77;;;13.18;;
70148;SDS011;57514;52.164;5.282;2023-02-22T02:49:47;23.95;;;9.57;;
70148;SDS011;57514;52.164;5.282;2023-02-22T02:52:20;29.98;;;12.57;;
70148;SDS011;57514;52.164;5.282;2023-02-22T02:54:49;25.42;;;10.35;;
70148;SDS011;57514;52.164;5.282;2023-02-22T02:57:16;30.85;;;12.75;;
70148;SDS011;57514;52.164;5.282;2023-02-22T02:59:43;37.33;;;14.93;;
70148;SDS011;57514;52.164;5.282;2023-02-22T03:12:37;38.30;;;14.73;;
70148;SDS011;57514;52.164;5.282;2023-02-22T03:20:21;33.92;;;14.25;;
70148;SDS011;57514;52.164;5.282;2023-02-22T03:23:00;33.83;;;13.70;;
70148;SDS011;57514;52.164;5.282;2023-02-22T03:25:32;37.80;;;13.90;;
70148;SDS011;57514;52.164;5.282;2023-02-22T03:28:02;33.58;;;14.57;;
70148;SDS011;57514;52.164;5.282;2023-02-22T03:30:32;33.97;;;13.82;;
70148;SDS011;57514;52.164;5.282;2023-02-22T03:33:03;35.40;;;13.65;;
70148;SDS011;57514;52.164;5.282;2023-02-22T03:35:36;29.42;;;12.25;;
70148;SDS011;57514;52.164;5.282;2023-02-22T03:38:06;40.78;;;15.60;;
70148;SDS011;57514;52.164;5.282;2023-02-22T03:40:42;40.85;;;15.95;;
70148;SDS011;57514;52.164;5.282;2023-02-22T03:45:42;37.25;;;13.68;;
70148;SDS011;57514;52.164;5.282;2023-02-22T03:48:15;37.22;;;14.80;;
70148;SDS011;57514;52.164;5.282;2023-02-22T03:50:46;37.60;;;15.10;;
70148;SDS011;57514;52.164;5.282;2023-02-22T03:53:15;43.58;;;16.73;;
70148;SDS011;57514;52.164;5.282;2023-02-22T03:55:45;37.85;;;15.02;;
70148;SDS011;57514;52.164;5.282;2023-02-22T03:58:13;38.13;;;14.65;;
70148;SDS011;57514;52.164;5.282;2023-02-22T04:00:40;35.78;;;12.77;;
70148;SDS011;57514;52.164;5.282;2023-02-22T04:03:09;34.03;;;13.05;;
70148;SDS011;57514;52.164;5.282;2023-02-22T04:05:37;34.45;;;13.15;;
70148;SDS011;57514;52.164;5.282;2023-02-22T04:08:05;38.85;;;14.95;;
70148;SDS011;57514;52.164;5.282;2023-02-22T04:10:32;41.80;;;15.40;;
70148;SDS011;57514;52.164;5.282;2023-02-22T04:13:00;40.70;;;16.60;;
70148;SDS011;57514;52.164;5.282;2023-02-22T04:15:27;33.20;;;11.98;;
70148;SDS011;57514;52.164;5.282;2023-02-22T04:18:01;42.33;;;16.67;;
70148;SDS011;57514;52.164;5.282;2023-02-22T04:20:29;38.40;;;13.90;;
70148;SDS011;57514;52.164;5.282;2023-02-22T04:23:02;41.17;;;14.38;;
70148;SDS011;57514;52.164;5.282;2023-02-22T04:25:29;42.47;;;16.60;;
70148;SDS011;57514;52.164;5.282;2023-02-22T04:28:01;36.60;;;14.90;;
70148;SDS011;57514;52.164;5.282;2023-02-22T04:30:37;42.88;;;15.40;;
70148;SDS011;57514;52.164;5.282;2023-02-22T04:33:07;42.40;;;16.50;;
70148;SDS011;57514;52.164;5.282;2023-02-22T04:35:35;33.63;;;13.07;;
70148;SDS011;57514;52.164;5.282;2023-02-22T04:38:04;40.05;;;15.73;;
70148;SDS011;57514;52.164;5.282;2023-02-22T04:40:31;48.17;;;16.10;;
70148;SDS011;57514;52.164;5.282;2023-02-22T04:42:59;43.25;;;16.13;;
70148;SDS011;57514;52.164;5.282;2023-02-22T04:45:27;40.65;;;15.35;;
70148;SDS011;57514;52.164;5.282;2023-02-22T04:47:54;43.83;;;16.92;;
70148;SDS011;57514;52.164;5.282;2023-02-22T04:50:22;43.78;;;16.33;;
70148;SDS011;57514;52.164;5.282;2023-02-22T04:52:49;42.67;;;16.73;;
70148;SDS011;57514;52.164;5.282;2023-02-22T04:55:17;42.92;;;16.75;;
70148;SDS011;57514;52.164;5.282;2023-02-22T04:57:44;49.63;;;17.13;;
70148;SDS011;57514;52.164;5.282;2023-02-22T05:00:14;44.80;;;16.45;;
70148;SDS011;57514;52.164;5.282;2023-02-22T05:05:09;42.80;;;15.45;;
70148;SDS011;57514;52.164;5.282;2023-02-22T05:07:36;34.83;;;11.88;;
70148;SDS011;57514;52.164;5.282;2023-02-22T05:10:04;41.90;;;15.95;;
70148;SDS011;57514;52.164;5.282;2023-02-22T05:12:31;47.15;;;16.50;;
70148;SDS011;57514;52.164;5.282;2023-02-22T05:14:58;45.42;;;17.75;;
70148;SDS011;57514;52.164;5.282;2023-02-22T05:17:25;39.53;;;14.60;;
70148;SDS011;57514;52.164;5.282;2023-02-22T05:19:53;34.33;;;13.00;;
70148;SDS011;57514;52.164;5.282;2023-02-22T05:22:20;44.00;;;16.63;;
70148;SDS011;57514;52.164;5.282;2023-02-22T05:24:47;46.10;;;17.17;;
70148;SDS011;57514;52.164;5.282;2023-02-22T05:27:14;48.17;;;16.92;;
70148;SDS011;57514;52.164;5.282;2023-02-22T05:29:42;43.10;;;15.85;;
70148;SDS011;57514;52.164;5.282;2023-02-22T05:32:09;41.42;;;15.23;;
70148;SDS011;57514;52.164;5.282;2023-02-22T05:34:37;37.42;;;13.82;;
70148;SDS011;57514;52.164;5.282;2023-02-22T05:37:05;57.72;;;20.20;;
70148;SDS011;57514;52.164;5.282;2023-02-22T05:39:32;38.92;;;15.18;;
70148;SDS011;57514;52.164;5.282;2023-02-22T05:41:59;50.90;;;16.45;;
70148;SDS011;57514;52.164;5.282;2023-02-22T05:44:26;51.50;;;18.67;;
70148;SDS011;57514;52.164;5.282;2023-02-22T05:46:53;52.35;;;17.77;;
70148;SDS011;57514;52.164;5.282;2023-02-22T05:49:21;45.25;;;17.10;;
70148;SDS011;57514;52.164;5.282;2023-02-22T05:51:48;48.50;;;17.10;;
70148;SDS011;57514;52.164;5.282;2023-02-22T05:54:15;46.10;;;15.27;;
70148;SDS011;57514;52.164;5.282;2023-02-22T05:56:42;46.92;;;16.05;;
70148;SDS011;57514;52.164;5.282;2023-02-22T05:59:10;52.42;;;17.25;;
70148;SDS011;57514;52.164;5.282;2023-02-22T06:01:37;48.30;;;16.67;;
70148;SDS011;57514;52.164;5.282;2023-02-22T06:04:04;55.83;;;18.75;;
70148;SDS011;57514;52.164;5.282;2023-02-22T06:06:31;49.75;;;16.20;;
70148;SDS011;57514;52.164;5.282;2023-02-22T06:08:58;49.47;;;18.40;;
70148;SDS011;57514;52.164;5.282;2023-02-22T06:11:26;64.13;;;17.98;;
70148;SDS011;57514;52.164;5.282;2023-02-22T06:13:53;55.25;;;18.55;;
70148;SDS011;57514;52.164;5.282;2023-02-22T06:16:21;51.53;;;18.02;;
70148;SDS011;57514;52.164;5.282;2023-02-22T06:18:49;54.47;;;17.55;;
70148;SDS011;57514;52.164;5.282;2023-02-22T06:21:16;48.95;;;18.15;;
70148;SDS011;57514;52.164;5.282;2023-02-22T06:23:44;48.15;;;17.42;;
70148;SDS011;57514;52.164;5.282;2023-02-22T06:26:11;33.00;;;11.90;;
70148;SDS011;57514;52.164;5.282;2023-02-22T06:28:41;55.75;;;18.10;;
70148;SDS011;57514;52.164;5.282;2023-02-22T06:31:08;52.67;;;17.00;;
70148;SDS011;57514;52.164;5.282;2023-02-22T06:33:36;48.95;;;18.77;;
70148;SDS011;57514;52.164;5.282;2023-02-22T06:36:03;58.53;;;19.33;;
70148;SDS011;57514;52.164;5.282;2023-02-22T06:38:30;59.47;;;18.88;;
70148;SDS011;57514;52.164;5.282;2023-02-22T06:40:58;41.45;;;14.68;;
70148;SDS011;57514;52.164;5.282;2023-02-22T06:43:25;50.75;;;17.58;;
70148;SDS011;57514;52.164;5.282;2023-02-22T06:45:52;63.85;;;21.23;;
70148;SDS011;57514;52.164;5.282;2023-02-22T06:48:20;50.05;;;15.70;;
70148;SDS011;57514;52.164;5.282;2023-02-22T06:50:47;66.35;;;20.15;;
70148;SDS011;57514;52.164;5.282;2023-02-22T06:53:14;56.30;;;18.67;;
70148;SDS011;57514;52.164;5.282;2023-02-22T06:55:41;69.10;;;20.92;;
70148;SDS011;57514;52.164;5.282;2023-02-22T06:58:08;58.83;;;16.88;;
70148;SDS011;57514;52.164;5.282;2023-02-22T07:00:36;67.93;;;20.85;;
70148;SDS011;57514;52.164;5.282;2023-02-22T07:03:03;60.65;;;17.38;;
70148;SDS011;57514;52.164;5.282;2023-02-22T07:05:31;57.05;;;17.33;;
70148;SDS011;57514;52.164;5.282;2023-02-22T07:08:03;66.50;;;19.63;;
70148;SDS011;57514;52.164;5.282;2023-02-22T07:10:32;53.83;;;17.38;;
70148;SDS011;57514;52.164;5.282;2023-02-22T07:13:03;58.95;;;16.52;;
70148;SDS011;57514;52.164;5.282;2023-02-22T07:15:31;58.20;;;19.35;;
70148;SDS011;57514;52.164;5.282;2023-02-22T07:17:59;59.85;;;18.80;;
70148;SDS011;57514;52.164;5.282;2023-02-22T07:20:27;63.92;;;18.98;;
70148;SDS011;57514;52.164;5.282;2023-02-22T07:22:55;60.35;;;19.60;;
70148;SDS011;57514;52.164;5.282;2023-02-22T07:25:22;58.60;;;17.17;;
70148;SDS011;57514;52.164;5.282;2023-02-22T07:27:49;59.80;;;17.10;;
70148;SDS011;57514;52.164;5.282;2023-02-22T07:30:28;68.10;;;18.75;;
70148;SDS011;57514;52.164;5.282;2023-02-22T07:32:57;73.50;;;20.63;;
70148;SDS011;57514;52.164;5.282;2023-02-22T07:35:26;59.92;;;16.05;;
70148;SDS011;57514;52.164;5.282;2023-02-22T07:37:54;57.33;;;19.17;;
70148;SDS011;57514;52.164;5.282;2023-02-22T07:40:21;57.65;;;19.83;;
70148;SDS011;57514;52.164;5.282;2023-02-22T07:42:53;64.25;;;19.33;;
70148;SDS011;57514;52.164;5.282;2023-02-22T07:45:22;46.90;;;17.02;;
70148;SDS011;57514;52.164;5.282;2023-02-22T07:47:50;57.80;;;18.58;;
70148;SDS011;57514;52.164;5.282;2023-02-22T07:50:18;59.45;;;19.02;;
70148;SDS011;57514;52.164;5.282;2023-02-22T07:52:46;50.00;;;17.58;;
70148;SDS011;57514;52.164;5.282;2023-02-22T07:55:15;32.65;;;12.40;;
70148;SDS011;57514;52.164;5.282;2023-02-22T07:57:44;44.83;;;16.70;;
70148;SDS011;57514;52.164;5.282;2023-02-22T08:00:11;46.38;;;15.90;;
70148;SDS011;57514;52.164;5.282;2023-02-22T08:02:40;45.80;;;15.82;;
70148;SDS011;57514;52.164;5.282;2023-02-22T08:05:09;48.08;;;17.10;;
70148;SDS011;57514;52.164;5.282;2023-02-22T08:07:36;41.60;;;15.85;;
70148;SDS011;57514;52.164;5.282;2023-02-22T08:10:04;41.15;;;14.52;;
70148;SDS011;57514;52.164;5.282;2023-02-22T08:12:33;49.75;;;17.30;;
70148;SDS011;57514;52.164;5.282;2023-02-22T08:15:02;43.55;;;14.80;;
70148;SDS011;57514;52.164;5.282;2023-02-22T08:17:30;44.67;;;16.38;;
70148;SDS011;57514;52.164;5.282;2023-02-22T08:19:57;48.60;;;18.42;;
70148;SDS011;57514;52.164;5.282;2023-02-22T08:22:24;38.58;;;13.80;;
70148;SDS011;57514;52.164;5.282;2023-02-22T08:24:54;47.20;;;15.18;;
70148;SDS011;57514;52.164;5.282;2023-02-22T08:27:25;36.10;;;13.40;;
70148;SDS011;57514;52.164;5.282;2023-02-22T08:29:52;48.42;;;18.98;;
70148;SDS011;57514;52.164;5.282;2023-02-22T08:32:20;47.10;;;17.15;;
70148;SDS011;57514;52.164;5.282;2023-02-22T08:34:48;45.28;;;14.45;;
70148;SDS011;57514;52.164;5.282;2023-02-22T08:37:15;49.78;;;17.80;;
70148;SDS011;57514;52.164;5.282;2023-02-22T08:39:43;40.95;;;14.90;;
70148;SDS011;57514;52.164;5.282;2023-02-22T08:42:10;36.85;;;14.50;;
70148;SDS011;57514;52.164;5.282;2023-02-22T08:44:38;40.35;;;15.88;;
70148;SDS011;57514;52.164;5.282;2023-02-22T08:47:06;44.88;;;16.25;;
70148;SDS011;57514;52.164;5.282;2023-02-22T08:49:33;43.90;;;17.10;;
70148;SDS011;57514;52.164;5.282;2023-02-22T08:52:00;40.83;;;14.27;;
70148;SDS011;57514;52.164;5.282;2023-02-22T08:54:28;41.03;;;15.75;;
70148;SDS011;57514;52.164;5.282;2023-02-22T08:56:55;43.97;;;16.48;;
70148;SDS011;57514;52.164;5.282;2023-02-22T08:59:22;31.33;;;12.52;;
70148;SDS011;57514;52.164;5.282;2023-02-22T09:01:49;42.03;;;16.45;;
70148;SDS011;57514;52.164;5.282;2023-02-22T09:04:17;41.78;;;17.05;;
70148;SDS011;57514;52.164;5.282;2023-02-22T09:06:44;27.55;;;11.30;;
70148;SDS011;57514;52.164;5.282;2023-02-22T09:09:18;36.78;;;15.27;;
70148;SDS011;57514;52.164;5.282;2023-02-22T09:11:47;34.58;;;14.07;;
70148;SDS011;57514;52.164;5.282;2023-02-22T09:14:17;35.78;;;14.68;;
70148;SDS011;57514;52.164;5.282;2023-02-22T09:16:45;36.40;;;14.82;;
70148;SDS011;57514;52.164;5.282;2023-02-22T09:19:12;36.80;;;13.73;;
70148;SDS011;57514;52.164;5.282;2023-02-22T09:21:39;38.15;;;15.57;;
70148;SDS011;57514;52.164;5.282;2023-02-22T09:24:07;34.25;;;13.60;;
70148;SDS011;57514;52.164;5.282;2023-02-22T09:26:35;33.50;;;15.27;;
70148;SDS011;57514;52.164;5.282;2023-02-22T09:29:08;36.67;;;15.63;;
70148;SDS011;57514;52.164;5.282;2023-02-22T09:31:36;35.60;;;14.98;;
70148;SDS011;57514;52.164;5.282;2023-02-22T09:34:04;29.33;;;10.38;;
70148;SDS011;57514;52.164;5.282;2023-02-22T09:36:42;37.33;;;16.73;;
70148;SDS011;57514;52.164;5.282;2023-02-22T09:39:12;40.17;;;16.33;;
70148;SDS011;57514;52.164;5.282;2023-02-22T09:46:53;36.80;;;16.02;;
70148;SDS011;57514;52.164;5.282;2023-02-22T09:52:00;38.55;;;17.38;;
70148;SDS011;57514;52.164;5.282;2023-02-22T09:54:35;36.97;;;16.50;;
70148;SDS011;57514;52.164;5.282;2023-02-22T09:57:08;35.55;;;14.45;;
70148;SDS011;57514;52.164;5.282;2023-02-22T09:59:39;36.33;;;15.68;;
70148;SDS011;57514;52.164;5.282;2023-02-22T10:02:20;34.10;;;14.68;;
70148;SDS011;57514;52.164;5.282;2023-02-22T10:04:59;35.08;;;14.95;;
70148;SDS011;57514;52.164;5.282;2023-02-22T10:07:32;33.15;;;13.93;;
70148;SDS011;57514;52.164;5.282;2023-02-22T10:10:02;33.08;;;14.88;;
70148;SDS011;57514;52.164;5.282;2023-02-22T10:12:50;33.67;;;14.02;;
70148;SDS011;57514;52.164;5.282;2023-02-22T10:17:56;30.15;;;13.32;;
70148;SDS011;57514;52.164;5.282;2023-02-22T10:25:24;32.88;;;15.32;;
70148;SDS011;57514;52.164;5.282;2023-02-22T10:27:57;33.78;;;15.07;;
70148;SDS011;57514;52.164;5.282;2023-02-22T10:30:40;30.08;;;14.20;;
70148;SDS011;57514;52.164;5.282;2023-02-22T10:33:12;34.97;;;15.30;;
70148;SDS011;57514;52.164;5.282;2023-02-22T10:35:41;32.97;;;14.48;;
70148;SDS011;57514;52.164;5.282;2023-02-22T10:38:16;35.30;;;14.82;;
70148;SDS011;57514;52.164;5.282;2023-02-22T10:40:48;30.48;;;14.02;;
70148;SDS011;57514;52.164;5.282;2023-02-22T10:43:16;32.08;;;14.70;;
70148;SDS011;57514;52.164;5.282;2023-02-22T10:45:43;33.65;;;14.75;;
70148;SDS011;57514;52.164;5.282;2023-02-22T10:48:12;29.90;;;12.63;;
70148;SDS011;57514;52.164;5.282;2023-02-22T10:50:41;32.28;;;14.85;;
70148;SDS011;57514;52.164;5.282;2023-02-22T10:53:09;30.80;;;13.27;;
70148;SDS011;57514;52.164;5.282;2023-02-22T10:56:03;31.98;;;14.57;;
70148;SDS011;57514;52.164;5.282;2023-02-22T10:58:24;32.78;;;14.23;;
70148;SDS011;57514;52.164;5.282;2023-02-22T11:00:51;31.90;;;14.55;;
70148;SDS011;57514;52.164;5.282;2023-02-22T11:03:19;35.67;;;14.55;;
70148;SDS011;57514;52.164;5.282;2023-02-22T11:05:47;31.00;;;13.07;;
70148;SDS011;57514;52.164;5.282;2023-02-22T11:08:21;34.85;;;14.20;;
70148;SDS011;57514;52.164;5.282;2023-02-22T11:10:49;30.30;;;13.45;;
70148;SDS011;57514;52.164;5.282;2023-02-22T11:15:45;33.15;;;14.98;;
70148;SDS011;57514;52.164;5.282;2023-02-22T11:18:26;30.88;;;14.40;;
70148;SDS011;57514;52.164;5.282;2023-02-22T11:20:59;28.38;;;12.45;;
70148;SDS011;57514;52.164;5.282;2023-02-22T11:23:27;25.70;;;11.73;;
70148;SDS011;57514;52.164;5.282;2023-02-22T11:26:02;29.02;;;12.43;;
70148;SDS011;57514;52.164;5.282;2023-02-22T11:28:31;26.23;;;11.70;;
70148;SDS011;57514;52.164;5.282;2023-02-22T11:31:07;28.45;;;11.88;;
70148;SDS011;57514;52.164;5.282;2023-02-22T11:33:36;28.05;;;12.82;;
70148;SDS011;57514;52.164;5.282;2023-02-22T11:36:03;21.50;;;10.15;;
70148;SDS011;57514;52.164;5.282;2023-02-22T11:38:35;34.80;;;14.75;;
70148;SDS011;57514;52.164;5.282;2023-02-22T11:41:09;28.35;;;12.80;;
70148;SDS011;57514;52.164;5.282;2023-02-22T11:43:40;26.65;;;12.23;;
70148;SDS011;57514;52.164;5.282;2023-02-22T11:46:10;33.38;;;14.77;;
70148;SDS011;57514;52.164;5.282;2023-02-22T11:48:39;30.60;;;13.02;;
70148;SDS011;57514;52.164;5.282;2023-02-22T11:53:53;34.90;;;14.25;;
70148;SDS011;57514;52.164;5.282;2023-02-22T11:56:28;33.58;;;14.48;;
70148;SDS011;57514;52.164;5.282;2023-02-22T12:02:13;33.60;;;13.52;;
70148;SDS011;57514;52.164;5.282;2023-02-22T12:20:27;33.65;;;14.30;;
70148;SDS011;57514;52.164;5.282;2023-02-22T12:23:15;27.92;;;11.82;;
70148;SDS011;57514;52.164;5.282;2023-02-22T12:28:25;28.20;;;11.90;;
70148;SDS011;57514;52.164;5.282;2023-02-22T12:31:02;34.17;;;14.82;;
70148;SDS011;57514;52.164;5.282;2023-02-22T12:33:40;33.20;;;14.77;;
70148;SDS011;57514;52.164;5.282;2023-02-22T12:36:11;33.28;;;15.52;;
70148;SDS011;57514;52.164;5.282;2023-02-22T12:38:41;23.73;;;10.18;;
70148;SDS011;57514;52.164;5.282;2023-02-22T12:41:12;34.58;;;15.57;;
70148;SDS011;57514;52.164;5.282;2023-02-22T12:46:21;31.83;;;14.23;;
70148;SDS011;57514;52.164;5.282;2023-02-22T12:49:00;29.15;;;12.60;;
70148;SDS011;57514;52.164;5.282;2023-02-22T12:51:35;34.50;;;15.40;;
70148;SDS011;57514;52.164;5.282;2023-02-22T12:56:33;31.42;;;13.75;;
70148;SDS011;57514;52.164;5.282;2023-02-22T12:59:04;30.77;;;13.10;;
70148;SDS011;57514;52.164;5.282;2023-02-22T13:01:36;31.15;;;13.93;;
70148;SDS011;57514;52.164;5.282;2023-02-22T13:04:05;29.77;;;14.77;;
70148;SDS011;57514;52.164;5.282;2023-02-22T13:06:58;30.63;;;14.02;;
70148;SDS011;57514;52.164;5.282;2023-02-22T13:17:19;32.80;;;15.07;;
70148;SDS011;57514;52.164;5.282;2023-02-22T13:20:00;28.63;;;14.00;;
70148;SDS011;57514;52.164;5.282;2023-02-22T13:22:33;29.25;;;13.32;;
70148;SDS011;57514;52.164;5.282;2023-02-22T13:25:13;28.73;;;12.55;;
70148;SDS011;57514;52.164;5.282;2023-02-22T13:27:50;33.65;;;14.48;;
70148;SDS011;57514;52.164;5.282;2023-02-22T13:30:25;31.63;;;14.52;;
70148;SDS011;57514;52.164;5.282;2023-02-22T13:33:08;30.23;;;13.18;;
70148;SDS011;57514;52.164;5.282;2023-02-22T13:40:46;28.33;;;13.63;;
70148;SDS011;57514;52.164;5.282;2023-02-22T13:43:23;32.22;;;15.23;;
70148;SDS011;57514;52.164;5.282;2023-02-22T13:51:08;31.52;;;15.15;;
70148;SDS011;57514;52.164;5.282;2023-02-22T13:56:09;31.77;;;14.75;;
70148;SDS011;57514;52.164;5.282;2023-02-22T13:58:50;34.60;;;15.18;;
70148;SDS011;57514;52.164;5.282;2023-02-22T14:06:50;29.65;;;14.00;;
70148;SDS011;57514;52.164;5.282;2023-02-22T14:09:40;29.65;;;12.55;;
70148;SDS011;57514;52.164;5.282;2023-02-22T14:13:02;28.33;;;13.65;;
70148;SDS011;57514;52.164;5.282;2023-02-22T14:20:31;31.52;;;14.40;;
70148;SDS011;57514;52.164;5.282;2023-02-22T14:23:47;29.38;;;14.52;;
70148;SDS011;57514;52.164;5.282;2023-02-22T14:25:48;29.55;;;14.18;;
70148;SDS011;57514;52.164;5.282;2023-02-22T14:31:06;28.05;;;13.90;;
70148;SDS011;57514;52.164;5.282;2023-02-22T14:36:19;28.58;;;14.13;;
70148;SDS011;57514;52.164;5.282;2023-02-22T14:38:47;31.67;;;16.42;;
70148;SDS011;57514;52.164;5.282;2023-02-22T14:41:17;26.15;;;12.57;;
70148;SDS011;57514;52.164;5.282;2023-02-22T14:43:45;30.83;;;15.73;;
70148;SDS011;57514;52.164;5.282;2023-02-22T14:46:17;28.10;;;14.93;;
70148;SDS011;57514;52.164;5.282;2023-02-22T14:48:46;22.17;;;11.13;;
70148;SDS011;57514;52.164;5.282;2023-02-22T14:51:16;28.92;;;14.07;;
70148;SDS011;57514;52.164;5.282;2023-02-22T14:53:50;24.48;;;12.20;;
70148;SDS011;57514;52.164;5.282;2023-02-22T14:56:23;24.55;;;13.13;;
70148;SDS011;57514;52.164;5.282;2023-02-22T14:58:55;29.20;;;12.65;;
70148;SDS011;57514;52.164;5.282;2023-02-22T15:01:28;25.35;;;12.00;;
70148;SDS011;57514;52.164;5.282;2023-02-22T15:04:27;27.73;;;12.68;;
70148;SDS011;57514;52.164;5.282;2023-02-22T15:06:57;28.60;;;14.05;;
70148;SDS011;57514;52.164;5.282;2023-02-22T15:09:26;23.83;;;10.93;;
70148;SDS011;57514;52.164;5.282;2023-02-22T15:14:34;27.23;;;13.55;;
70148;SDS011;57514;52.164;5.282;2023-02-22T15:17:06;28.08;;;14.38;;
70148;SDS011;57514;52.164;5.282;2023-02-22T15:19:45;26.42;;;14.13;;
70148;SDS011;57514;52.164;5.282;2023-02-22T15:22:33;32.83;;;16.45;;
70148;SDS011;57514;52.164;5.282;2023-02-22T15:25:03;26.00;;;13.10;;
70148;SDS011;57514;52.164;5.282;2023-02-22T15:27:31;27.85;;;14.48;;
70148;SDS011;57514;52.164;5.282;2023-02-22T15:30:08;23.50;;;12.10;;
70148;SDS011;57514;52.164;5.282;2023-02-22T15:32:37;32.15;;;16.15;;
70148;SDS011;57514;52.164;5.282;2023-02-22T15:40:27;31.13;;;15.65;;
70148;SDS011;57514;52.164;5.282;2023-02-22T15:43:04;31.05;;;15.80;;
70148;SDS011;57514;52.164;5.282;2023-02-22T15:45:34;28.65;;;16.08;;
70148;SDS011;57514;52.164;5.282;2023-02-22T15:48:08;33.97;;;17.60;;
70148;SDS011;57514;52.164;5.282;2023-02-22T15:50:36;34.45;;;18.52;;
70148;SDS011;57514;52.164;5.282;2023-02-22T15:53:05;30.17;;;16.50;;
70148;SDS011;57514;52.164;5.282;2023-02-22T15:58:06;28.55;;;15.05;;
70148;SDS011;57514;52.164;5.282;2023-02-22T16:00:34;34.95;;;18.55;;
70148;SDS011;57514;52.164;5.282;2023-02-22T16:03:03;29.13;;;15.73;;
70148;SDS011;57514;52.164;5.282;2023-02-22T16:05:37;30.65;;;17.02;;
70148;SDS011;57514;52.164;5.282;2023-02-22T16:10:48;30.95;;;16.10;;
70148;SDS011;57514;52.164;5.282;2023-02-22T16:13:21;27.60;;;13.48;;
70148;SDS011;57514;52.164;5.282;2023-02-22T16:16:04;33.33;;;17.40;;
70148;SDS011;57514;52.164;5.282;2023-02-22T16:21:00;35.25;;;18.45;;
70148;SDS011;57514;52.164;5.282;2023-02-22T16:23:28;29.83;;;15.45;;
70148;SDS011;57514;52.164;5.282;2023-02-22T16:26:02;30.38;;;17.80;;
70148;SDS011;57514;52.164;5.282;2023-02-22T16:28:30;33.95;;;17.80;;
70148;SDS011;57514;52.164;5.282;2023-02-22T16:31:01;29.90;;;17.10;;
70148;SDS011;57514;52.164;5.282;2023-02-22T16:33:29;30.92;;;18.13;;
70148;SDS011;57514;52.164;5.282;2023-02-22T16:36:03;32.67;;;18.05;;
70148;SDS011;57514;52.164;5.282;2023-02-22T16:38:31;32.47;;;17.60;;
70148;SDS011;57514;52.164;5.282;2023-02-22T16:41:01;32.47;;;18.05;;
70148;SDS011;57514;52.164;5.282;2023-02-22T16:43:30;35.60;;;18.35;;
70148;SDS011;57514;52.164;5.282;2023-02-22T16:48:29;40.20;;;21.50;;
70148;SDS011;57514;52.164;5.282;2023-02-22T16:51:04;33.38;;;17.00;;
70148;SDS011;57514;52.164;5.282;2023-02-22T16:53:32;35.50;;;18.52;;
70148;SDS011;57514;52.164;5.282;2023-02-22T16:56:01;34.30;;;18.50;;
70148;SDS011;57514;52.164;5.282;2023-02-22T16:58:33;36.60;;;21.67;;
70148;SDS011;57514;52.164;5.282;2023-02-22T17:01:03;36.45;;;20.20;;